Time;durP1;ratioP1;P1;durP2;ratioP2;P2;SDS_P1;SDS_P2;PMS_P1;PMS_P2;Temp;Humidity;BMP_temperature;BMP_pressure;BME280_temperature;BME280_humidity;BME280_pressure;Samples;Min_cycle;Max_cycle;Signal;HPM_P1;HPM_P2
2021/09/16 00:01:38;;;;;;;2.77;2.57;;;16.90;99.90;;;;;;5044089;28;20832;-81
2021/09/16 00:04:04;;;;;;;3.80;3.50;;;16.80;99.90;;;;;;5043537;28;20207;-81
2021/09/16 00:06:30;;;;;;;4.03;3.13;;;16.70;99.90;;;;;;5038885;28;20655;-80
2021/09/16 00:08:55;;;;;;;3.93;3.63;;;16.70;99.90;;;;;;5058573;28;20428;-81
2021/09/16 00:11:21;;;;;;;3.20;3.00;;;16.70;99.90;;;;;;5048157;28;20178;-80
2021/09/16 00:13:47;;;;;;;3.30;3.10;;;16.70;99.90;;;;;;5046254;28;20543;-80
2021/09/16 00:16:12;;;;;;;3.47;2.97;;;16.60;99.90;;;;;;5044195;28;20223;-81
2021/09/16 00:18:38;;;;;;;3.53;3.23;;;16.70;99.90;;;;;;5042836;28;20257;-81
2021/09/16 00:21:04;;;;;;;3.37;3.07;;;16.70;99.90;;;;;;5047701;28;20197;-81
2021/09/16 00:23:29;;;;;;;6.50;3.30;;;16.70;99.90;;;;;;5047894;28;20522;-81
2021/09/16 00:25:55;;;;;;;3.70;2.90;;;16.50;99.90;;;;;;5044170;28;20232;-81
2021/09/16 00:28:20;;;;;;;2.97;2.77;;;16.90;99.90;;;;;;5044092;28;20217;-81
2021/09/16 00:30:46;;;;;;;3.23;3.03;;;16.70;99.90;;;;;;5045611;28;20241;-81
2021/09/16 00:33:12;;;;;;;2.90;2.70;;;16.70;99.90;;;;;;5052438;28;20273;-81
2021/09/16 00:35:38;;;;;;;4.80;3.57;;;16.70;99.90;;;;;;5058119;28;20229;-81
2021/09/16 00:38:03;;;;;;;3.00;2.77;;;16.70;99.90;;;;;;5042863;28;20465;-81
2021/09/16 00:40:29;;;;;;;3.10;2.90;;;17.00;99.90;;;;;;5056006;28;20197;-81
2021/09/16 00:42:54;;;;;;;3.20;2.73;;;16.70;99.90;;;;;;5062462;28;20174;-81
2021/09/16 00:45:20;;;;;;;3.10;2.90;;;16.90;99.90;;;;;;5065683;28;20206;-81
2021/09/16 00:47:47;;;;;;;3.20;2.70;;;17.00;99.90;;;;;;5052495;28;20274;-81
2021/09/16 00:50:15;;;;;;;2.63;2.43;;;17.00;99.90;;;;;;5046105;28;20226;-81
2021/09/16 00:52:41;;;;;;;2.77;2.57;;;16.90;99.90;;;;;;5047908;28;20996;-81
2021/09/16 00:55:09;;;;;;;2.93;2.73;;;17.20;99.90;;;;;;5063153;28;20416;-81
2021/09/16 00:57:36;;;;;;;3.03;2.57;;;17.00;99.90;;;;;;5060385;28;20425;-81
2021/09/16 01:00:07;;;;;;;3.00;2.70;;;16.80;99.90;;;;;;5045425;28;20807;-81
2021/09/16 01:02:32;;;;;;;3.23;3.03;;;17.00;99.90;;;;;;5043010;28;20433;-81
2021/09/16 01:04:58;;;;;;;2.67;2.47;;;16.70;99.90;;;;;;5041196;28;20780;-82
2021/09/16 01:07:24;;;;;;;2.50;2.40;;;16.90;99.90;;;;;;5047328;28;20179;-81
2021/09/16 01:09:49;;;;;;;3.33;2.67;;;17.00;99.90;;;;;;5060932;28;20190;-82
2021/09/16 01:12:15;;;;;;;3.70;3.10;;;16.80;99.90;;;;;;5065193;28;20416;-81
2021/09/16 01:14:40;;;;;;;3.00;2.80;;;16.80;99.90;;;;;;5063473;28;20268;-82
2021/09/16 01:17:06;;;;;;;3.30;3.10;;;16.70;99.90;;;;;;5043232;28;20329;-81
2021/09/16 01:19:32;;;;;;;2.93;2.73;;;16.70;99.90;;;;;;5045890;28;20242;-82
2021/09/16 01:21:57;;;;;;;3.40;3.10;;;17.00;99.90;;;;;;5045170;28;20190;-81
2021/09/16 01:24:23;;;;;;;3.73;2.87;;;17.10;99.90;;;;;;5042564;28;20658;-82
2021/09/16 01:26:49;;;;;;;3.23;2.93;;;16.90;99.90;;;;;;5041364;28;20645;-81
2021/09/16 01:29:14;;;;;;;3.27;3.03;;;16.80;99.90;;;;;;5044250;28;20429;-81
2021/09/16 01:31:46;;;;;;;2.97;2.77;;;17.00;99.90;;;;;;5045564;28;20182;-82
2021/09/16 01:34:14;;;;;;;3.73;3.10;;;16.90;99.90;;;;;;5047216;28;20183;-82
2021/09/16 01:36:42;;;;;;;2.47;2.27;;;16.80;99.90;;;;;;5042785;28;20439;-81
2021/09/16 01:39:09;;;;;;;2.93;2.67;;;17.10;99.90;;;;;;5041348;28;20464;-81
2021/09/16 01:41:35;;;;;;;3.30;3.00;;;17.10;99.90;;;;;;5046310;28;20852;-81
2021/09/16 01:44:00;;;;;;;2.63;2.43;;;17.10;99.90;;;;;;5052940;28;20519;-81
2021/09/16 01:46:26;;;;;;;3.10;2.80;;;16.90;99.90;;;;;;5064797;28;20178;-81
2021/09/16 01:48:51;;;;;;;9.10;8.50;;;17.10;99.90;;;;;;5061104;28;20592;-81
2021/09/16 01:51:17;;;;;;;5.70;5.30;;;17.20;99.90;;;;;;5050203;28;20203;-82
2021/09/16 01:53:43;;;;;;;4.30;4.00;;;17.00;99.90;;;;;;5046004;28;20265;-81
2021/09/16 01:56:09;;;;;;;3.10;2.90;;;17.10;99.90;;;;;;5053530;28;20209;-80
2021/09/16 01:58:36;;;;;;;3.60;3.30;;;17.30;99.90;;;;;;5044379;28;20242;-80
2021/09/16 02:01:02;;;;;;;3.47;3.27;;;17.20;99.90;;;;;;5040636;28;20432;-80
2021/09/16 02:03:28;;;;;;;3.67;3.37;;;17.00;99.90;;;;;;5042904;28;20417;-80
2021/09/16 02:05:53;;;;;;;3.17;2.90;;;16.90;99.90;;;;;;5047917;28;20443;-80
2021/09/16 02:08:19;;;;;;;2.67;2.50;;;17.10;99.90;;;;;;5046033;28;20185;-80
2021/09/16 02:10:44;;;;;;;2.90;2.70;;;17.20;99.90;;;;;;5043693;28;20649;-80
2021/09/16 02:13:10;;;;;;;2.53;2.33;;;16.90;99.90;;;;;;5042224;28;20190;-81
2021/09/16 02:15:35;;;;;;;3.10;2.70;;;17.20;99.90;;;;;;5047206;28;20679;-81
2021/09/16 02:18:01;;;;;;;2.70;2.50;;;16.80;99.90;;;;;;5063858;28;20182;-81
2021/09/16 02:20:26;;;;;;;3.40;2.47;;;17.10;99.90;;;;;;5064110;28;20662;-81
2021/09/16 02:22:52;;;;;;;2.40;2.00;;;16.90;99.90;;;;;;5060373;28;20184;-81
2021/09/16 02:25:17;;;;;;;2.80;2.60;;;16.90;99.90;;;;;;5060639;28;20273;-81
2021/09/16 02:27:43;;;;;;;2.47;2.27;;;17.10;99.90;;;;;;5048776;28;20171;-81
2021/09/16 02:30:09;;;;;;;2.67;2.47;;;17.20;99.90;;;;;;5041626;28;20213;-81
2021/09/16 02:32:35;;;;;;;3.70;2.77;;;17.20;99.90;;;;;;5041948;28;20190;-81
2021/09/16 02:35:01;;;;;;;2.90;2.57;;;16.70;99.90;;;;;;5045310;28;20441;-81
2021/09/16 02:37:27;;;;;;;2.30;2.10;;;17.20;99.90;;;;;;5045046;28;20531;-81
2021/09/16 02:39:52;;;;;;;1.93;1.80;;;16.90;99.90;;;;;;5039899;28;20555;-81
2021/09/16 02:42:18;;;;;;;2.30;2.10;;;17.10;99.90;;;;;;5040255;28;20270;-81
2021/09/16 02:44:44;;;;;;;2.47;2.27;;;17.10;99.90;;;;;;5044841;28;20230;-81
2021/09/16 02:47:09;;;;;;;2.03;1.93;;;17.10;99.90;;;;;;5045992;28;20183;-81
2021/09/16 02:49:35;;;;;;;2.90;2.47;;;16.90;99.90;;;;;;5045124;28;20265;-81
2021/09/16 02:52:00;;;;;;;3.80;2.63;;;17.00;99.90;;;;;;5041696;28;20187;-81
2021/09/16 02:54:26;;;;;;;2.50;2.30;;;17.10;99.90;;;;;;5040522;28;20274;-81
2021/09/16 02:56:51;;;;;;;2.50;2.30;;;17.20;99.90;;;;;;5053944;28;20190;-80
2021/09/16 02:59:17;;;;;;;3.00;2.80;;;16.90;99.90;;;;;;5062188;28;20755;-81
2021/09/16 03:01:43;;;;;;;2.30;2.10;;;16.80;99.90;;;;;;5044387;28;20680;-80
2021/09/16 03:04:08;;;;;;;2.60;2.40;;;17.10;99.90;;;;;;5040221;28;20210;-80
2021/09/16 03:06:34;;;;;;;2.67;2.47;;;17.00;99.90;;;;;;5041740;28;20707;-80
2021/09/16 03:08:59;;;;;;;3.07;2.73;;;17.20;99.90;;;;;;5043505;28;20180;-80
2021/09/16 03:11:25;;;;;;;2.47;2.27;;;17.10;99.90;;;;;;5045073;28;20190;-81
2021/09/16 03:13:51;;;;;;;2.57;2.37;;;17.10;99.90;;;;;;5043214;28;20187;-81
2021/09/16 03:16:16;;;;;;;2.00;1.90;;;17.10;99.90;;;;;;5050326;28;20433;-81
2021/09/16 03:18:42;;;;;;;2.70;2.50;;;17.10;99.90;;;;;;5042518;28;20212;-80
2021/09/16 03:21:07;;;;;;;6.33;3.30;;;17.10;99.90;;;;;;5050427;28;20252;-81
2021/09/16 03:23:33;;;;;;;2.70;2.50;;;17.20;99.90;;;;;;5048973;28;20194;-80
2021/09/16 03:25:58;;;;;;;3.40;2.50;;;17.10;99.90;;;;;;5043409;28;20186;-80
2021/09/16 03:28:24;;;;;;;3.30;2.87;;;17.30;99.90;;;;;;5053621;28;20243;-80
2021/09/16 03:30:50;;;;;;;2.83;2.63;;;17.30;99.90;;;;;;5059609;28;20183;-80
2021/09/16 03:33:15;;;;;;;2.33;2.13;;;17.30;99.90;;;;;;5045350;28;20587;-80
2021/09/16 03:35:41;;;;;;;2.40;2.20;;;17.30;99.90;;;;;;5046454;28;20183;-80
2021/09/16 03:38:06;;;;;;;3.73;2.70;;;17.20;99.90;;;;;;5048506;28;20179;-79
2021/09/16 03:40:32;;;;;;;3.00;2.80;;;17.20;99.90;;;;;;5046918;28;20187;-78
2021/09/16 03:42:58;;;;;;;2.93;2.70;;;17.10;99.90;;;;;;5042992;28;20644;-78
2021/09/16 03:45:23;;;;;;;2.67;2.53;;;17.10;99.90;;;;;;5043243;28;20225;-78
2021/09/16 03:47:49;;;;;;;2.23;2.13;;;17.20;99.90;;;;;;5056902;28;20218;-78
2021/09/16 03:50:14;;;;;;;2.20;2.00;;;17.10;99.90;;;;;;5045110;28;20245;-78
2021/09/16 03:52:40;;;;;;;2.80;2.60;;;17.10;99.90;;;;;;5046789;28;20541;-77
2021/09/16 03:55:06;;;;;;;3.00;2.70;;;17.00;99.90;;;;;;5048201;28;20218;-78
2021/09/16 03:57:32;;;;;;;3.30;3.00;;;17.10;99.90;;;;;;5046194;28;20479;-78
2021/09/16 03:59:57;;;;;;;2.50;2.30;;;16.80;99.90;;;;;;5042460;28;20959;-78
2021/09/16 04:02:23;;;;;;;3.00;2.70;;;17.10;99.90;;;;;;5042641;28;20214;-78
2021/09/16 04:04:49;;;;;;;2.60;2.40;;;16.80;99.90;;;;;;5045970;28;20274;-78
2021/09/16 04:07:14;;;;;;;3.70;2.67;;;16.80;99.90;;;;;;5054855;28;20216;-78
2021/09/16 04:09:40;;;;;;;2.87;2.67;;;16.80;99.90;;;;;;5062694;28;20189;-78
2021/09/16 04:12:06;;;;;;;3.07;2.87;;;17.10;99.90;;;;;;5062592;28;20190;-78
2021/09/16 04:14:31;;;;;;;2.83;2.60;;;16.70;99.90;;;;;;5064726;28;20189;-78
2021/09/16 04:16:57;;;;;;;2.73;2.40;;;16.70;99.90;;;;;;5057092;28;21330;-78
2021/09/16 04:19:22;;;;;;;2.90;2.70;;;16.80;99.90;;;;;;5053645;28;20584;-78
2021/09/16 04:21:48;;;;;;;2.03;1.93;;;16.80;99.90;;;;;;5027803;28;20256;-78
2021/09/16 04:24:14;;;;;;;3.50;3.00;;;17.10;99.90;;;;;;5047811;28;20592;-77
2021/09/16 04:26:41;;;;;;;3.40;3.10;;;17.00;99.90;;;;;;5045794;28;20182;-77
2021/09/16 04:29:06;;;;;;;2.87;2.53;;;16.90;99.90;;;;;;5041926;28;20436;-77
2021/09/16 04:31:32;;;;;;;3.50;3.20;;;16.70;99.90;;;;;;5051409;28;20487;-78
2021/09/16 04:33:58;;;;;;;2.97;2.63;;;17.00;99.90;;;;;;5043921;28;20542;-77
2021/09/16 04:36:23;;;;;;;3.80;3.17;;;16.90;99.90;;;;;;5047586;28;20233;-78
2021/09/16 04:38:49;;;;;;;4.90;2.93;;;17.00;99.90;;;;;;5045771;28;20689;-77
2021/09/16 04:41:14;;;;;;;3.13;2.80;;;16.60;99.90;;;;;;5043611;28;20356;-78
2021/09/16 04:43:40;;;;;;;3.33;3.07;;;16.70;99.90;;;;;;5044279;28;20182;-78
2021/09/16 04:46:05;;;;;;;3.60;2.40;;;16.60;99.90;;;;;;5042095;28;20206;-77
2021/09/16 04:48:31;;;;;;;3.17;2.97;;;16.90;99.90;;;;;;5047495;28;20186;-78
2021/09/16 04:50:56;;;;;;;3.00;2.80;;;16.60;99.90;;;;;;5046318;28;20234;-78
2021/09/16 04:53:22;;;;;;;3.00;2.80;;;16.70;99.90;;;;;;5049100;28;20217;-77
2021/09/16 04:55:48;;;;;;;3.20;3.00;;;17.00;99.90;;;;;;5042789;28;20183;-78
2021/09/16 04:58:14;;;;;;;2.83;2.63;;;16.80;99.90;;;;;;5048780;28;20273;-77
2021/09/16 05:00:39;;;;;;;3.50;3.20;;;16.70;99.90;;;;;;5058023;28;21028;-77
2021/09/16 05:03:05;;;;;;;4.13;3.63;;;16.80;99.90;;;;;;5057459;28;20186;-76
2021/09/16 05:05:32;;;;;;;3.97;3.10;;;16.70;99.90;;;;;;5059680;28;20773;-72
2021/09/16 05:07:57;;;;;;;3.60;3.20;;;16.70;99.90;;;;;;5053553;28;20623;-72
2021/09/16 05:10:23;;;;;;;3.20;2.83;;;17.10;99.90;;;;;;5051785;28;20533;-70
2021/09/16 05:12:48;;;;;;;3.17;2.87;;;16.70;99.90;;;;;;5048284;28;20193;-71
2021/09/16 05:15:14;;;;;;;3.70;3.30;;;16.60;99.90;;;;;;5066339;28;20862;-70
2021/09/16 05:17:39;;;;;;;4.63;3.30;;;17.00;99.90;;;;;;5061847;28;20195;-70
2021/09/16 05:20:06;;;;;;;4.53;4.00;;;16.60;99.90;;;;;;5058147;28;20746;-70
2021/09/16 05:22:31;;;;;;;3.97;3.50;;;16.80;99.90;;;;;;5047419;28;20225;-71
2021/09/16 05:24:57;;;;;;;5.73;3.67;;;17.00;99.90;;;;;;5059733;28;20821;-70
2021/09/16 05:27:22;;;;;;;6.20;5.80;;;16.70;99.90;;;;;;5047531;28;20179;-70
2021/09/16 05:29:48;;;;;;;7.83;7.23;;;16.70;99.90;;;;;;5044827;28;20183;-69
2021/09/16 05:32:13;;;;;;;12.83;11.90;;;16.70;99.90;;;;;;5052459;28;20193;-70
2021/09/16 05:34:39;;;;;;;11.80;10.77;;;16.70;99.90;;;;;;5059123;28;20180;-69
2021/09/16 05:37:05;;;;;;;8.30;7.60;;;16.70;99.90;;;;;;5059340;28;20632;-69
2021/09/16 05:39:30;;;;;;;5.97;5.47;;;16.70;99.90;;;;;;5047155;28;20210;-69
2021/09/16 05:41:56;;;;;;;5.37;4.90;;;16.70;99.90;;;;;;5062087;28;20182;-69
2021/09/16 05:44:21;;;;;;;5.73;4.97;;;16.60;99.90;;;;;;5065164;28;20193;-69
2021/09/16 05:46:47;;;;;;;4.27;3.90;;;16.80;99.90;;;;;;5058152;28;20190;-69
2021/09/16 05:49:12;;;;;;;4.90;4.50;;;16.90;99.90;;;;;;5042288;28;20230;-69
2021/09/16 05:51:38;;;;;;;6.63;6.13;;;16.60;99.90;;;;;;5042306;28;20187;-69
2021/09/16 05:54:03;;;;;;;5.47;5.00;;;16.60;99.90;;;;;;5046025;28;20274;-69
2021/09/16 05:56:29;;;;;;;5.00;4.53;;;16.70;99.90;;;;;;5046060;28;20170;-69
2021/09/16 05:58:56;;;;;;;4.60;4.20;;;17.10;99.90;;;;;;5023421;28;20240;-70
2021/09/16 06:01:21;;;;;;;4.20;3.83;;;16.70;99.90;;;;;;5041747;28;20175;-70
2021/09/16 06:03:47;;;;;;;4.30;4.00;;;16.70;99.90;;;;;;5045160;28;20494;-70
2021/09/16 06:06:13;;;;;;;3.83;3.53;;;16.90;99.90;;;;;;5045270;28;20183;-70
2021/09/16 06:08:38;;;;;;;3.63;3.27;;;16.90;99.90;;;;;;5059931;28;20435;-70
2021/09/16 06:11:04;;;;;;;4.40;4.00;;;17.00;99.90;;;;;;5053664;28;20235;-71
2021/09/16 06:13:30;;;;;;;4.27;3.87;;;17.20;99.90;;;;;;5056092;28;20179;-71
2021/09/16 06:15:55;;;;;;;3.53;3.30;;;16.90;99.90;;;;;;5054694;28;20182;-70
2021/09/16 06:18:21;;;;;;;3.63;3.33;;;16.90;99.90;;;;;;5060301;28;20448;-70
2021/09/16 06:20:47;;;;;;;3.80;3.30;;;17.10;99.90;;;;;;5060505;28;20228;-70
2021/09/16 06:23:12;;;;;;;4.07;3.67;;;17.20;99.90;;;;;;5046611;28;20178;-71
2021/09/16 06:25:38;;;;;;;4.00;3.70;;;17.40;99.90;;;;;;5046729;28;20444;-71
2021/09/16 06:28:03;;;;;;;3.43;3.13;;;17.30;99.90;;;;;;5043356;28;20182;-71
2021/09/16 06:30:29;;;;;;;3.67;3.37;;;17.50;99.90;;;;;;5040182;28;20182;-71
2021/09/16 06:32:54;;;;;;;5.07;3.57;;;17.40;99.90;;;;;;5040054;28;20180;-71
2021/09/16 06:35:20;;;;;;;3.60;3.30;;;17.50;99.90;;;;;;5045405;28;20186;-71
2021/09/16 06:37:46;;;;;;;3.27;2.97;;;17.70;99.90;;;;;;5035874;28;20192;-71
2021/09/16 06:40:12;;;;;;;4.10;3.70;;;17.60;99.90;;;;;;5037855;28;20206;-71
2021/09/16 06:42:38;;;;;;;3.30;3.00;;;17.70;99.90;;;;;;5040857;28;20271;-71
2021/09/16 06:45:05;;;;;;;3.47;3.27;;;18.00;99.90;;;;;;5040914;28;20654;-71
2021/09/16 06:47:31;;;;;;;3.50;3.20;;;18.00;99.90;;;;;;5059284;28;20722;-71
2021/09/16 06:49:56;;;;;;;3.90;3.50;;;18.10;99.90;;;;;;5044658;28;20561;-71
2021/09/16 06:52:22;;;;;;;3.93;3.63;;;18.10;99.90;;;;;;5045266;28;20270;-72
2021/09/16 06:54:49;;;;;;;3.17;2.97;;;18.00;99.90;;;;;;5043596;28;20300;-71
2021/09/16 06:57:14;;;;;;;3.60;3.30;;;18.30;99.90;;;;;;5045841;28;20521;-71
2021/09/16 06:59:40;;;;;;;3.00;2.80;;;18.30;99.90;;;;;;5042819;28;20559;-71
2021/09/16 07:02:06;;;;;;;3.33;3.03;;;18.70;99.90;;;;;;5048890;28;20489;-71
2021/09/16 07:04:31;;;;;;;3.30;3.10;;;18.60;99.90;;;;;;5049057;28;20280;-71
2021/09/16 07:06:59;;;;;;;3.40;3.20;;;18.50;99.90;;;;;;5043786;28;20814;-71
2021/09/16 07:09:24;;;;;;;3.07;2.87;;;18.80;99.90;;;;;;5043251;28;20200;-71
2021/09/16 07:11:50;;;;;;;3.23;2.50;;;18.50;99.90;;;;;;5044281;28;20868;-71
2021/09/16 07:14:16;;;;;;;2.67;2.47;;;18.40;99.90;;;;;;5048251;28;20207;-71
2021/09/16 07:16:41;;;;;;;3.43;3.17;;;18.80;99.90;;;;;;5048779;28;20667;-70
2021/09/16 07:19:07;;;;;;;2.63;2.53;;;18.50;99.90;;;;;;5045148;28;20269;-70
2021/09/16 07:21:32;;;;;;;3.40;3.10;;;18.60;99.90;;;;;;5042766;28;20219;-71
2021/09/16 07:23:58;;;;;;;2.90;2.70;;;18.70;99.90;;;;;;5043407;28;20188;-71
2021/09/16 07:26:25;;;;;;;3.33;3.03;;;18.90;99.90;;;;;;5042782;28;20212;-71
2021/09/16 07:28:50;;;;;;;6.43;2.67;;;19.10;99.90;;;;;;5044756;28;20183;-71
2021/09/16 07:31:17;;;;;;;2.70;2.50;;;19.40;99.90;;;;;;5047665;28;20438;-71
2021/09/16 07:33:42;;;;;;;2.87;2.67;;;19.20;99.90;;;;;;5042955;28;20569;-71
2021/09/16 07:36:08;;;;;;;3.07;2.77;;;19.60;99.90;;;;;;5065307;28;20447;-71
2021/09/16 07:38:33;;;;;;;2.90;2.80;;;19.20;99.90;;;;;;5062816;28;20299;-71
2021/09/16 07:40:59;;;;;;;2.70;2.50;;;19.40;99.90;;;;;;5066250;28;20203;-72
2021/09/16 07:43:24;;;;;;;3.17;2.50;;;19.10;99.90;;;;;;5068190;28;20181;-71
2021/09/16 07:45:50;;;;;;;2.63;2.43;;;19.30;99.90;;;;;;5064686;28;20207;-71
2021/09/16 07:48:16;;;;;;;2.43;2.23;;;19.00;99.90;;;;;;5060987;28;20273;-71
2021/09/16 07:50:42;;;;;;;2.97;2.77;;;18.70;99.90;;;;;;5063335;28;20232;-71
2021/09/16 07:53:09;;;;;;;2.23;2.13;;;19.00;99.90;;;;;;5065338;28;20824;-71
2021/09/16 07:55:35;;;;;;;2.33;2.23;;;18.90;99.90;;;;;;5068437;28;20267;-71
2021/09/16 07:58:01;;;;;;;3.70;2.67;;;18.70;99.90;;;;;;5065880;28;20431;-71
2021/09/16 08:00:26;;;;;;;3.70;3.17;;;19.10;99.90;;;;;;5062641;28;20297;-70
2021/09/16 08:02:52;;;;;;;4.53;2.97;;;18.90;99.90;;;;;;5060895;28;20172;-70
2021/09/16 08:05:18;;;;;;;3.40;3.10;;;18.70;99.90;;;;;;5054901;28;20200;-70
2021/09/16 08:07:44;;;;;;;4.03;3.33;;;18.80;99.90;;;;;;5046421;28;20182;-70
2021/09/16 08:10:11;;;;;;;3.77;3.40;;;18.60;99.90;;;;;;5047510;28;20505;-70
2021/09/16 08:12:37;;;;;;;3.43;3.23;;;18.60;99.90;;;;;;5048561;28;20445;-71
2021/09/16 08:15:04;;;;;;;2.30;2.10;;;18.70;99.90;;;;;;5042165;28;20847;-70
2021/09/16 08:17:29;;;;;;;3.10;2.80;;;18.80;99.90;;;;;;5048508;28;20545;-70
2021/09/16 08:19:55;;;;;;;2.67;2.47;;;18.40;99.90;;;;;;5054241;28;21190;-70
2021/09/16 08:22:20;;;;;;;2.00;1.83;;;18.50;99.90;;;;;;5046819;28;20180;-70
2021/09/16 08:24:46;;;;;;;1.73;1.63;;;18.50;99.90;;;;;;5044325;28;20219;-70
2021/09/16 08:27:11;;;;;;;2.20;2.00;;;18.60;99.90;;;;;;5042222;28;20197;-71
2021/09/16 08:29:37;;;;;;;2.17;1.97;;;18.50;99.90;;;;;;5043574;28;20676;-71
2021/09/16 08:32:03;;;;;;;1.70;1.60;;;18.30;99.90;;;;;;5046958;28;20183;-71
2021/09/16 08:34:30;;;;;;;2.63;2.03;;;18.10;99.90;;;;;;5053772;28;20183;-70
2021/09/16 08:36:56;;;;;;;1.70;1.60;;;18.30;99.90;;;;;;5044217;28;20419;-70
2021/09/16 08:39:23;;;;;;;1.30;1.20;;;18.10;99.90;;;;;;5061649;28;20473;-71
2021/09/16 08:41:49;;;;;;;1.20;1.03;;;17.70;99.90;;;;;;5046042;28;20262;-71
2021/09/16 08:44:18;;;;;;;1.53;1.27;;;18.10;99.90;;;;;;5047614;28;21052;-70
2021/09/16 08:46:44;;;;;;;1.90;1.33;;;18.30;99.90;;;;;;5042094;28;20421;-69
2021/09/16 08:49:10;;;;;;;1.23;1.23;;;18.20;99.90;;;;;;5042859;28;21048;-70
2021/09/16 08:51:39;;;;;;;1.63;1.53;;;18.30;99.90;;;;;;5053107;28;20199;-69
2021/09/16 08:54:07;;;;;;;1.30;1.20;;;18.00;99.90;;;;;;5065351;28;20413;-69
2021/09/16 08:56:33;;;;;;;1.17;1.17;;;17.70;99.90;;;;;;5066771;28;20527;-69
2021/09/16 08:59:03;;;;;;;2.87;1.13;;;17.70;99.90;;;;;;5062577;28;20721;-68
2021/09/16 09:01:29;;;;;;;1.10;1.00;;;17.90;99.90;;;;;;5059569;28;20472;-68
2021/09/16 09:03:54;;;;;;;1.13;1.03;;;17.70;99.90;;;;;;5065178;28;20443;-69
2021/09/16 09:06:34;;;;;;;1.60;0.97;;;17.80;99.90;;;;;;5065588;28;20218;-69
2021/09/16 09:09:33;;;;;;;1.37;1.27;;;17.70;99.90;;;;;;5063117;28;20251;-69
2021/09/16 09:12:03;;;;;;;2.40;1.20;;;18.00;99.90;;;;;;5054574;28;20442;-70
2021/09/16 09:14:31;;;;;;;1.67;1.03;;;17.40;99.90;;;;;;5061724;28;20423;-69
2021/09/16 09:16:58;;;;;;;1.00;0.90;;;17.40;99.90;;;;;;5060489;28;20516;-69
2021/09/16 09:19:26;;;;;;;1.60;1.33;;;17.50;99.90;;;;;;5064291;28;21037;-69
2021/09/16 09:21:52;;;;;;;1.33;1.23;;;17.40;99.90;;;;;;5064846;28;20466;-69
2021/09/16 09:24:34;;;;;;;3.73;1.07;;;17.40;99.90;;;;;;5065028;28;20425;-70
2021/09/16 09:27:01;;;;;;;1.07;0.97;;;17.30;99.90;;;;;;5046496;28;20433;-70
2021/09/16 09:29:26;;;;;;;2.57;1.20;;;17.30;99.90;;;;;;5060604;28;20425;-70
2021/09/16 09:32:01;;;;;;;1.83;1.30;;;17.20;99.90;;;;;;5056179;28;20482;-70
2021/09/16 09:34:31;;;;;;;1.40;1.30;;;17.20;99.90;;;;;;5042031;28;20269;-71
2021/09/16 09:37:11;;;;;;;1.70;1.40;;;17.10;99.90;;;;;;5063286;28;21007;-70
2021/09/16 09:39:37;;;;;;;1.63;1.53;;;17.50;99.90;;;;;;5060386;28;20471;-69
2021/09/16 09:42:17;;;;;;;1.40;1.30;;;17.20;99.90;;;;;;5049572;28;20427;-70
2021/09/16 09:44:42;;;;;;;1.37;1.27;;;17.40;99.90;;;;;;5045215;28;20442;-69
2021/09/16 09:47:08;;;;;;;1.90;1.80;;;17.10;99.90;;;;;;5042034;28;20536;-71
2021/09/16 09:49:36;;;;;;;3.30;3.00;;;17.30;99.90;;;;;;5042746;28;20226;-70
2021/09/16 09:52:02;;;;;;;4.33;3.70;;;17.30;99.90;;;;;;5055011;28;20432;-70
2021/09/16 09:54:32;;;;;;;4.63;3.67;;;17.10;99.90;;;;;;5050149;28;20958;-71
2021/09/16 09:57:00;;;;;;;4.13;3.77;;;17.20;99.90;;;;;;5040659;28;20670;-71
2021/09/16 09:59:26;;;;;;;5.00;4.47;;;17.10;99.90;;;;;;5043453;28;20786;-70
2021/09/16 10:02:03;;;;;;;4.77;4.23;;;17.10;99.90;;;;;;5052570;28;20463;-70
2021/09/16 10:04:30;;;;;;;6.10;5.27;;;17.30;99.90;;;;;;5045878;28;20770;-71
2021/09/16 10:06:57;;;;;;;7.03;6.33;;;17.20;99.90;;;;;;5041570;28;20954;-72
2021/09/16 10:09:23;;;;;;;9.47;7.20;;;17.40;99.90;;;;;;5043043;28;20527;-71
2021/09/16 10:11:50;;;;;;;8.73;7.03;;;17.30;99.90;;;;;;5058026;28;21006;-71
2021/09/16 10:14:18;;;;;;;11.03;8.40;;;17.50;99.90;;;;;;5065763;28;20194;-71
2021/09/16 10:16:44;;;;;;;8.10;7.30;;;17.30;99.90;;;;;;5057536;28;20452;-71
2021/09/16 10:19:10;;;;;;;10.57;8.67;;;17.70;99.90;;;;;;5047578;28;20465;-71
2021/09/16 10:21:36;;;;;;;8.90;7.83;;;17.70;99.90;;;;;;5041720;28;20619;-71
2021/09/16 10:24:03;;;;;;;9.20;8.03;;;17.70;99.90;;;;;;5056744;28;20175;-72
2021/09/16 10:26:36;;;;;;;7.50;6.77;;;17.90;99.90;;;;;;5064716;28;20954;-72
2021/09/16 10:29:04;;;;;;;13.30;9.10;;;18.00;99.90;;;;;;5056478;28;20433;-72
2021/09/16 10:31:30;;;;;;;11.77;9.93;;;17.70;99.90;;;;;;5057429;28;20808;-71
2021/09/16 10:33:55;;;;;;;10.97;9.03;;;18.10;99.90;;;;;;5043359;28;20439;-72
2021/09/16 10:36:21;;;;;;;10.70;9.10;;;18.30;99.90;;;;;;5054116;28;20209;-72
2021/09/16 10:38:53;;;;;;;10.50;9.37;;;18.40;99.90;;;;;;5057550;28;20226;-71
2021/09/16 10:41:34;;;;;;;11.07;9.00;;;18.40;99.90;;;;;;5057954;28;20209;-71
2021/09/16 10:43:59;;;;;;;11.67;9.10;;;18.40;99.90;;;;;;5033317;28;20504;-72
2021/09/16 10:46:43;;;;;;;11.67;10.47;;;18.50;99.90;;;;;;5043122;28;20430;-72
2021/09/16 10:49:23;;;;;;;11.10;9.60;;;18.80;99.90;;;;;;5042412;28;20311;-72
2021/09/16 10:51:51;;;;;;;10.90;9.20;;;18.50;99.90;;;;;;5049017;28;20792;-73
2021/09/16 10:54:23;;;;;;;10.83;9.60;;;18.60;99.90;;;;;;5039651;28;20541;-72
2021/09/16 10:57:11;;;;;;;13.83;10.80;;;18.60;99.90;;;;;;5039343;28;20409;-72
2021/09/16 10:59:52;;;;;;;15.23;12.47;;;17.90;99.90;;;;;;5063886;28;20901;-72
2021/09/16 11:02:19;;;;;;;14.37;12.00;;;18.10;99.90;;;;;;5063011;28;20490;-72
2021/09/16 11:04:54;;;;;;;18.57;14.00;;;17.70;99.90;;;;;;5040348;28;20433;-73
2021/09/16 11:07:32;;;;;;;14.40;11.70;;;17.40;99.90;;;;;;5043427;28;20518;-72
2021/09/16 11:10:16;;;;;;;17.93;13.67;;;17.30;99.90;;;;;;5054302;28;20570;-73
2021/09/16 11:12:43;;;;;;;16.93;13.30;;;17.70;99.90;;;;;;5055305;28;20439;-73
2021/09/16 11:15:10;;;;;;;14.90;12.40;;;17.50;99.90;;;;;;5058862;28;20444;-73
2021/09/16 11:17:37;;;;;;;14.43;11.70;;;17.70;99.90;;;;;;5054249;28;20527;-73
2021/09/16 11:20:04;;;;;;;13.17;10.53;;;17.80;99.90;;;;;;5055646;28;20625;-73
2021/09/16 11:22:30;;;;;;;17.43;12.97;;;18.30;99.90;;;;;;5062531;28;20432;-73
2021/09/16 11:24:57;;;;;;;14.63;11.53;;;18.80;99.90;;;;;;5052274;28;20792;-72
2021/09/16 11:27:29;;;;;;;16.87;12.97;;;19.00;99.90;;;;;;5054797;28;20184;-74
2021/09/16 11:29:56;;;;;;;16.70;12.20;;;19.30;99.90;;;;;;5037148;28;20441;-73
2021/09/16 11:32:36;;;;;;;14.20;10.40;;;19.90;99.90;;;;;;5041154;28;20450;-73
2021/09/16 11:35:09;;;;;;;14.13;11.80;;;20.20;99.90;;;;;;5043008;28;20769;-73
2021/09/16 11:37:41;;;;;;;13.50;10.60;;;20.80;99.90;;;;;;5051599;28;20439;-73
2021/09/16 11:40:17;;;;;;;13.53;11.03;;;20.90;99.90;;;;;;5043499;28;20502;-72
2021/09/16 11:42:45;;;;;;;15.67;11.50;;;20.60;99.90;;;;;;5043351;28;20412;-73
2021/09/16 11:45:16;;;;;;;15.70;11.80;;;20.70;99.90;;;;;;5045052;28;20787;-72
2021/09/16 11:47:53;;;;;;;13.43;9.53;;;20.50;99.90;;;;;;5046209;28;20435;-73
2021/09/16 11:50:37;;;;;;;12.67;10.80;;;20.90;99.90;;;;;;5028129;28;20471;-72
2021/09/16 11:53:07;;;;;;;11.30;9.90;;;20.80;99.90;;;;;;5024536;28;20512;-72
2021/09/16 11:55:35;;;;;;;11.20;10.00;;;21.00;99.90;;;;;;5024849;28;20994;-71
2021/09/16 11:58:14;;;;;;;10.73;9.67;;;20.80;99.90;;;;;;5058301;28;20434;-72
2021/09/16 12:00:48;;;;;;;13.70;11.83;;;20.90;99.90;;;;;;5065914;28;20470;-71
2021/09/16 12:03:21;;;;;;;13.17;11.73;;;20.80;99.90;;;;;;5049612;28;20754;-72
2021/09/16 12:06:06;;;;;;;13.23;11.90;;;20.80;99.90;;;;;;5062382;28;20437;-71
2021/09/16 12:08:39;;;;;;;17.43;13.93;;;20.60;99.90;;;;;;5042185;28;20455;-71
2021/09/16 12:11:11;;;;;;;16.43;13.00;;;20.50;99.90;;;;;;5034507;28;20436;-72
2021/09/16 12:13:40;;;;;;;17.90;13.60;;;20.40;99.90;;;;;;5052530;28;20442;-71
2021/09/16 12:16:12;;;;;;;16.17;14.17;;;20.30;99.90;;;;;;5057883;28;20578;-71
2021/09/16 12:18:43;;;;;;;16.83;14.90;;;20.40;99.90;;;;;;5038318;28;20439;-70
2021/09/16 12:21:15;;;;;;;18.80;14.37;;;19.90;99.90;;;;;;5023411;28;20778;-70
2021/09/16 12:23:49;;;;;;;14.63;13.10;;;20.10;99.90;;;;;;5028913;28;20534;-70
2021/09/16 12:26:17;;;;;;;16.60;13.40;;;19.70;99.90;;;;;;5030178;28;21009;-70
2021/09/16 12:28:52;;;;;;;15.90;14.03;;;19.50;99.90;;;;;;5045240;28;20436;-71
2021/09/16 12:31:40;;;;;;;14.27;12.33;;;19.40;99.90;;;;;;5040998;28;20468;-71
2021/09/16 12:34:17;;;;;;;12.60;10.63;;;19.50;99.90;;;;;;5042440;28;20442;-71
2021/09/16 12:36:57;;;;;;;13.33;11.93;;;19.30;99.90;;;;;;5041731;28;20481;-71
2021/09/16 12:39:24;;;;;;;15.47;12.53;;;19.60;99.90;;;;;;5039863;28;20479;-71
2021/09/16 12:41:49;;;;;;;19.73;14.30;;;19.70;99.90;;;;;;5045057;28;20506;-71
2021/09/16 12:44:28;;;;;;;17.57;13.77;;;19.30;99.90;;;;;;5043285;28;20914;-71